Wes Sellars — WDF9302 — position and weather

sailwx.info

Track history (hours):
 
Tides and Currents Weather Stations Pressure Air Temp Water Temp Dewpoint Dewpoint Depression Visibility Wind Speed Wind Dir Waves Ship Positions

Wes Sellars

Owner: Florida Marine, LLC, Mandeville, LA. More information available from US FCC via Universal Licensing System and Coast Guard Vessel Documentation Center.

Last reported at 2016-Dec-07 22:33 UTC. Time now 2016-Dec-08 16:13 UTC.
Position N 29°44' W 095°12'.

Length 27 m.

Type: Towing. MMSI: 367503760.

Date/timePositionNaut miles runAvg speedWind from/ knotsBaromVisibWave heightAir tempDewpointWater temp
2016-Dec-07 22:33N 29°44' W 095°12'4 3.8
2016-Dec-07 21:33N 29°44' W 095°08'5 4.7
2016-Dec-07 20:33N 29°47' W 095°04'0 0.3
2016-Dec-07 19:33N 29°47' W 095°04'0 0.0
2016-Dec-07 18:33N 29°47' W 095°04'2 2.4
2016-Dec-07 17:33N 29°46' W 095°06'0 0.0
2016-Dec-07 16:32N 29°46' W 095°06'0 0.0
2016-Dec-07 15:33N 29°46' W 095°06'0 0.0
2016-Dec-07 01:32N 29°46' W 095°06'0 0.1
2016-Dec-06 20:27N 29°46' W 095°06'0 0.0
2016-Dec-06 18:28N 29°46' W 095°06'0 0.0
2016-Dec-06 16:33N 29°46' W 095°06'0 0.0
2016-Dec-06 15:32N 29°46' W 095°06'0 0.0
2016-Dec-06 14:33N 29°46' W 095°06'0 0.0
2016-Dec-05 19:33N 29°46' W 095°06'0 0.0
2016-Dec-05 18:34N 29°46' W 095°06'0 0.0
2016-Dec-05 17:33N 29°46' W 095°06'0 0.0
2016-Dec-04 14:14N 29°46' W 095°06'0 0.0
2016-Dec-02 22:17N 29°46' W 095°06'0 0.0
2016-Dec-02 21:33N 29°46' W 095°06'0 0.0
2016-Dec-02 20:18N 29°46' W 095°06'0 0.0
2016-Dec-02 19:32N 29°46' W 095°06'0 0.0
2016-Dec-02 18:31N 29°46' W 095°06'0 0.0
2016-Dec-02 17:22N 29°46' W 095°06'0 0.0
2016-Dec-02 16:31N 29°46' W 095°06'0 0.0
2016-Dec-02 15:33N 29°46' W 095°06'74 1.9
2016-Dec-01 00:09N 30°03' W 093°43'3 5.4
2016-Nov-30 23:33N 30°04' W 093°39'5 5.3
2016-Nov-30 22:33N 30°04' W 093°33'5 4.9
2016-Nov-30 21:33N 30°04' W 093°27'4 4.3
2016-Nov-30 20:33N 30°04' W 093°22'3 3.2
2016-Nov-30 19:33N 30°06' W 093°20'3 2.6
2016-Nov-30 18:33N 30°08' W 093°19'0 0.2
2016-Nov-30 17:33N 30°08' W 093°19'0 0.0
2016-Nov-30 16:33N 30°08' W 093°19'0 0.0
2016-Nov-30 15:33N 30°08' W 093°19'0 0.0
2016-Nov-30 14:33N 30°08' W 093°19'0 0.0
2016-Nov-30 13:33N 30°08' W 093°19'0 0.0
2016-Nov-30 12:33N 30°08' W 093°19'0 0.0
2016-Nov-30 11:33N 30°08' W 093°19'0 0.0
2016-Nov-30 10:33N 30°08' W 093°19'0 0.0
2016-Nov-30 09:33N 30°08' W 093°19'0 0.0
2016-Nov-30 08:33N 30°08' W 093°19'0 0.0
2016-Nov-30 07:34N 30°08' W 093°19'0 0.0
2016-Nov-30 06:33N 30°08' W 093°19'0 0.0
2016-Nov-30 05:33N 30°08' W 093°19'0 0.0
2016-Nov-30 04:33N 30°08' W 093°19'0 0.0
2016-Nov-30 03:33N 30°08' W 093°19'0 0.0
2016-Nov-30 02:33N 30°08' W 093°19'0 0.0
2016-Nov-30 01:34N 30°08' W 093°19'0 0.0
2016-Nov-30 00:33N 30°08' W 093°19'0 0.0
2016-Nov-29 23:33N 30°08' W 093°19'0 0.0
2016-Nov-29 22:33N 30°08' W 093°19'0 0.0
2016-Nov-29 21:33N 30°08' W 093°19'0 0.0
2016-Nov-29 20:33N 30°08' W 093°19'0 0.0
2016-Nov-29 19:33N 30°08' W 093°19'0 0.4
2016-Nov-29 18:33N 30°08' W 093°20'0 0.0
2016-Nov-29 17:33N 30°08' W 093°20'0 0.0
2016-Nov-29 16:33N 30°08' W 093°20'0 0.0
2016-Nov-29 15:33N 30°08' W 093°20'2 1.6
2016-Nov-29 14:34N 30°07' W 093°20'2 2.3
2016-Nov-29 13:33N 30°04' W 093°20'0 0.0
2016-Nov-29 12:33N 30°04' W 093°20'0 0.0
2016-Nov-29 11:33N 30°04' W 093°20'0 0.0
2016-Nov-29 10:33N 30°04' W 093°20'0 0.0
2016-Nov-29 09:33N 30°04' W 093°20'0 0.0
2016-Nov-29 08:33N 30°04' W 093°20'0 0.0
2016-Nov-29 07:33N 30°04' W 093°20'0 0.0
2016-Nov-29 06:33N 30°04' W 093°20'0 0.0
2016-Nov-29 05:33N 30°04' W 093°20'0 0.0
2016-Nov-29 04:33N 30°04' W 093°20'0 0.0
2016-Nov-29 03:33N 30°04' W 093°20'0 0.0
2016-Nov-29 02:33N 30°04' W 093°20'0 0.0
2016-Nov-29 01:33N 30°04' W 093°20'0 0.0
2016-Nov-29 00:33N 30°04' W 093°20'0 0.0
2016-Nov-28 23:33N 30°04' W 093°20'0 0.0
2016-Nov-28 22:33N 30°04' W 093°20'0 0.0
2016-Nov-28 21:33N 30°04' W 093°20'0 0.0
2016-Nov-28 20:33N 30°04' W 093°20'0 0.0
2016-Nov-28 19:33N 30°04' W 093°20'0 0.0
2016-Nov-28 18:33N 30°04' W 093°20'0 0.0
2016-Nov-28 17:33N 30°04' W 093°20'0 0.0
2016-Nov-28 16:33N 30°04' W 093°20'0 0.0
2016-Nov-28 15:33N 30°04' W 093°20'0 0.0
2016-Nov-28 14:33N 30°04' W 093°20'0 0.0
2016-Nov-28 13:33N 30°04' W 093°20'0 0.0
2016-Nov-28 12:33N 30°04' W 093°20'0 0.0
2016-Nov-28 11:33N 30°04' W 093°20'0 0.0
2016-Nov-28 10:33N 30°04' W 093°20'0 0.0
2016-Nov-28 09:33N 30°04' W 093°20'0 0.0
2016-Nov-28 08:33N 30°04' W 093°20'0 0.0
2016-Nov-28 07:33N 30°04' W 093°20'0 0.0
2016-Nov-28 06:34N 30°04' W 093°20'0 0.0
2016-Nov-28 05:33N 30°04' W 093°20'0 0.0
2016-Nov-28 04:33N 30°04' W 093°20'0 0.0
2016-Nov-28 03:33N 30°04' W 093°20'0 0.0
2016-Nov-28 02:33N 30°04' W 093°20'0 0.0
2016-Nov-28 01:33N 30°04' W 093°20'0 0.0
2016-Nov-28 00:33N 30°04' W 093°20'0 0.0
2016-Nov-27 23:33N 30°04' W 093°20'0 0.0
2016-Nov-27 22:33N 30°04' W 093°20'  
Track history (hours):
 
Tides and Currents Weather Stations Pressure Air Temp Water Temp Dewpoint Dewpoint Depression Visibility Wind Speed Wind Dir Waves Ship Positions

Wes Sellars

Owner: Florida Marine, LLC, Mandeville, LA. More information available from US FCC via Universal Licensing System and Coast Guard Vessel Documentation Center.

Last reported at 2016-Dec-07 22:33 UTC. Time now 2016-Dec-08 16:13 UTC.
Position N 29°44' W 095°12'.

Length 27 m.

Type: Towing. MMSI: 367503760.

Date/timePositionNaut miles runAvg speedWind from/ knotsBaromVisibWave heightAir tempDewpointWater temp
2016-Dec-07 22:33N 29°44' W 095°12'4 3.8
2016-Dec-07 21:33N 29°44' W 095°08'5 4.7
2016-Dec-07 20:33N 29°47' W 095°04'0 0.3
2016-Dec-07 19:33N 29°47' W 095°04'0 0.0
2016-Dec-07 18:33N 29°47' W 095°04'2 2.4
2016-Dec-07 17:33N 29°46' W 095°06'0 0.0
2016-Dec-07 16:32N 29°46' W 095°06'0 0.0
2016-Dec-07 15:33N 29°46' W 095°06'0 0.0
2016-Dec-07 01:32N 29°46' W 095°06'0 0.1
2016-Dec-06 20:27N 29°46' W 095°06'0 0.0
2016-Dec-06 18:28N 29°46' W 095°06'0 0.0
2016-Dec-06 16:33N 29°46' W 095°06'0 0.0
2016-Dec-06 15:32N 29°46' W 095°06'0 0.0
2016-Dec-06 14:33N 29°46' W 095°06'0 0.0
2016-Dec-05 19:33N 29°46' W 095°06'0 0.0
2016-Dec-05 18:34N 29°46' W 095°06'0 0.0
2016-Dec-05 17:33N 29°46' W 095°06'0 0.0
2016-Dec-04 14:14N 29°46' W 095°06'0 0.0
2016-Dec-02 22:17N 29°46' W 095°06'0 0.0
2016-Dec-02 21:33N 29°46' W 095°06'0 0.0
2016-Dec-02 20:18N 29°46' W 095°06'0 0.0
2016-Dec-02 19:32N 29°46' W 095°06'0 0.0
2016-Dec-02 18:31N 29°46' W 095°06'0 0.0
2016-Dec-02 17:22N 29°46' W 095°06'0 0.0
2016-Dec-02 16:31N 29°46' W 095°06'0 0.0
2016-Dec-02 15:33N 29°46' W 095°06'74 1.9
2016-Dec-01 00:09N 30°03' W 093°43'3 5.4
2016-Nov-30 23:33N 30°04' W 093°39'5 5.3
2016-Nov-30 22:33N 30°04' W 093°33'5 4.9
2016-Nov-30 21:33N 30°04' W 093°27'4 4.3
2016-Nov-30 20:33N 30°04' W 093°22'3 3.2
2016-Nov-30 19:33N 30°06' W 093°20'3 2.6
2016-Nov-30 18:33N 30°08' W 093°19'0 0.2
2016-Nov-30 17:33N 30°08' W 093°19'0 0.0
2016-Nov-30 16:33N 30°08' W 093°19'0 0.0
2016-Nov-30 15:33N 30°08' W 093°19'0 0.0
2016-Nov-30 14:33N 30°08' W 093°19'0 0.0
2016-Nov-30 13:33N 30°08' W 093°19'0 0.0
2016-Nov-30 12:33N 30°08' W 093°19'0 0.0
2016-Nov-30 11:33N 30°08' W 093°19'0 0.0
2016-Nov-30 10:33N 30°08' W 093°19'0 0.0
2016-Nov-30 09:33N 30°08' W 093°19'0 0.0
2016-Nov-30 08:33N 30°08' W 093°19'0 0.0
2016-Nov-30 07:34N 30°08' W 093°19'0 0.0
2016-Nov-30 06:33N 30°08' W 093°19'0 0.0
2016-Nov-30 05:33N 30°08' W 093°19'0 0.0
2016-Nov-30 04:33N 30°08' W 093°19'0 0.0
2016-Nov-30 03:33N 30°08' W 093°19'0 0.0
2016-Nov-30 02:33N 30°08' W 093°19'0 0.0
2016-Nov-30 01:34N 30°08' W 093°19'0 0.0
2016-Nov-30 00:33N 30°08' W 093°19'0 0.0
2016-Nov-29 23:33N 30°08' W 093°19'0 0.0
2016-Nov-29 22:33N 30°08' W 093°19'0 0.0
2016-Nov-29 21:33N 30°08' W 093°19'0 0.0
2016-Nov-29 20:33N 30°08' W 093°19'0 0.0
2016-Nov-29 19:33N 30°08' W 093°19'0 0.4
2016-Nov-29 18:33N 30°08' W 093°20'0 0.0
2016-Nov-29 17:33N 30°08' W 093°20'0 0.0
2016-Nov-29 16:33N 30°08' W 093°20'0 0.0
2016-Nov-29 15:33N 30°08' W 093°20'2 1.6
2016-Nov-29 14:34N 30°07' W 093°20'2 2.3
2016-Nov-29 13:33N 30°04' W 093°20'0 0.0
2016-Nov-29 12:33N 30°04' W 093°20'0 0.0
2016-Nov-29 11:33N 30°04' W 093°20'0 0.0
2016-Nov-29 10:33N 30°04' W 093°20'0 0.0
2016-Nov-29 09:33N 30°04' W 093°20'0 0.0
2016-Nov-29 08:33N 30°04' W 093°20'0 0.0
2016-Nov-29 07:33N 30°04' W 093°20'0 0.0
2016-Nov-29 06:33N 30°04' W 093°20'0 0.0
2016-Nov-29 05:33N 30°04' W 093°20'0 0.0
2016-Nov-29 04:33N 30°04' W 093°20'0 0.0
2016-Nov-29 03:33N 30°04' W 093°20'0 0.0
2016-Nov-29 02:33N 30°04' W 093°20'0 0.0
2016-Nov-29 01:33N 30°04' W 093°20'0 0.0
2016-Nov-29 00:33N 30°04' W 093°20'0 0.0
2016-Nov-28 23:33N 30°04' W 093°20'0 0.0
2016-Nov-28 22:33N 30°04' W 093°20'0 0.0
2016-Nov-28 21:33N 30°04' W 093°20'0 0.0
2016-Nov-28 20:33N 30°04' W 093°20'0 0.0
2016-Nov-28 19:33N 30°04' W 093°20'0 0.0
2016-Nov-28 18:33N 30°04' W 093°20'0 0.0
2016-Nov-28 17:33N 30°04' W 093°20'0 0.0
2016-Nov-28 16:33N 30°04' W 093°20'0 0.0
2016-Nov-28 15:33N 30°04' W 093°20'0 0.0
2016-Nov-28 14:33N 30°04' W 093°20'0 0.0
2016-Nov-28 13:33N 30°04' W 093°20'0 0.0
2016-Nov-28 12:33N 30°04' W 093°20'0 0.0
2016-Nov-28 11:33N 30°04' W 093°20'0 0.0
2016-Nov-28 10:33N 30°04' W 093°20'0 0.0
2016-Nov-28 09:33N 30°04' W 093°20'0 0.0
2016-Nov-28 08:33N 30°04' W 093°20'0 0.0
2016-Nov-28 07:33N 30°04' W 093°20'0 0.0
2016-Nov-28 06:34N 30°04' W 093°20'0 0.0
2016-Nov-28 05:33N 30°04' W 093°20'0 0.0
2016-Nov-28 04:33N 30°04' W 093°20'0 0.0
2016-Nov-28 03:33N 30°04' W 093°20'0 0.0
2016-Nov-28 02:33N 30°04' W 093°20'0 0.0
2016-Nov-28 01:33N 30°04' W 093°20'0 0.0
2016-Nov-28 00:33N 30°04' W 093°20'0 0.0
2016-Nov-27 23:33N 30°04' W 093°20'0 0.0
2016-Nov-27 22:33N 30°04' W 093°20'  

Dump ship's entire track history